createdAt,value
2018-09-22T00:01:27.680Z,14.31
2018-09-22T00:03:03.244Z,14.38
2018-09-22T00:04:40.000Z,14.11
2018-09-22T00:06:15.472Z,14.19
2018-09-22T00:07:51.000Z,14.42
2018-09-22T00:09:26.614Z,14.31
2018-09-22T00:11:02.180Z,14.48
2018-09-22T00:12:37.681Z,14.24
2018-09-22T00:14:13.170Z,14.30
2018-09-22T00:15:48.669Z,14.29
2018-09-22T00:17:24.161Z,14.21
2018-09-22T00:18:59.678Z,13.93
2018-09-22T00:20:35.234Z,14.21
2018-09-22T00:22:10.741Z,13.99
2018-09-22T00:23:46.182Z,13.99
2018-09-22T00:25:22.088Z,14.03
2018-09-22T00:26:58.313Z,13.95
2018-09-22T00:28:33.797Z,13.90
2018-09-22T00:30:09.874Z,14.10
2018-09-22T00:31:45.653Z,13.99
2018-09-22T00:33:21.132Z,13.87
2018-09-22T00:34:56.618Z,13.93
2018-09-22T00:36:32.066Z,13.94
2018-09-22T00:38:07.550Z,14.00
2018-09-22T00:39:44.146Z,13.87
2018-09-22T00:41:19.899Z,13.89
2018-09-22T00:42:56.330Z,13.87
2018-09-22T00:44:31.856Z,14.03
2018-09-22T00:46:08.190Z,13.89
2018-09-22T00:47:43.668Z,13.83
2018-09-22T00:49:19.148Z,13.98
2018-09-22T00:50:54.650Z,13.92
2018-09-22T00:52:30.147Z,13.89
2018-09-22T00:54:05.635Z,13.89
2018-09-22T00:55:41.172Z,14.05
2018-09-22T00:57:16.694Z,14.06
2018-09-22T00:58:53.456Z,14.12
2018-09-22T01:00:28.984Z,14.16
2018-09-22T01:02:04.966Z,14.18
2018-09-22T01:03:40.502Z,14.19
2018-09-22T01:05:16.017Z,14.27
2018-09-22T01:06:51.676Z,14.20
2018-09-22T01:08:27.170Z,14.42
2018-09-22T01:10:02.640Z,14.28
2018-09-22T01:11:38.607Z,14.23
2018-09-22T01:13:14.156Z,14.18
2018-09-22T01:14:49.650Z,14.09
2018-09-22T01:16:25.195Z,14.18
2018-09-22T01:18:00.654Z,13.86
2018-09-22T01:19:37.341Z,13.85
2018-09-22T01:21:12.852Z,13.84
2018-09-22T01:22:48.591Z,13.82
2018-09-22T01:24:24.101Z,13.99
2018-09-22T01:25:59.608Z,13.96
2018-09-22T01:27:35.065Z,13.90
2018-09-22T01:29:14.851Z,13.97
2018-09-22T01:30:50.384Z,13.82
2018-09-22T01:32:26.789Z,13.77
2018-09-22T01:34:02.287Z,13.85
2018-09-22T01:35:38.178Z,13.62
2018-09-22T01:37:13.741Z,13.58
2018-09-22T01:38:49.290Z,13.60
2018-09-22T01:40:24.772Z,13.70
2018-09-22T01:42:00.323Z,13.64
2018-09-22T01:43:36.030Z,13.59
2018-09-22T01:45:12.316Z,13.74
2018-09-22T01:46:48.035Z,13.75
2018-09-22T01:48:23.482Z,13.65
2018-09-22T01:49:59.033Z,13.66
2018-09-22T01:51:34.516Z,13.62
2018-09-22T01:53:10.083Z,13.26
2018-09-22T01:54:46.264Z,13.77
2018-09-22T01:56:23.955Z,13.79
2018-09-22T01:57:59.401Z,13.60
2018-09-22T01:59:34.902Z,13.59
2018-09-22T02:01:11.158Z,13.64
2018-09-22T02:02:46.820Z,13.45
2018-09-22T02:04:22.800Z,13.55
2018-09-22T02:05:58.375Z,13.42
2018-09-22T02:07:33.900Z,13.38
2018-09-22T02:09:10.135Z,13.31
2018-09-22T02:10:45.701Z,13.32
2018-09-22T02:12:21.090Z,13.41
2018-09-22T02:13:57.034Z,13.33
2018-09-22T02:15:32.797Z,13.26
2018-09-22T02:17:08.234Z,13.31
2018-09-22T02:18:45.351Z,13.26
2018-09-22T02:20:21.294Z,13.23
2018-09-22T02:21:56.797Z,13.22
2018-09-22T02:23:32.908Z,13.17
2018-09-22T02:25:08.472Z,13.20
2018-09-22T02:26:44.167Z,13.13
2018-09-22T02:28:19.678Z,13.05
2018-09-22T02:29:56.162Z,13.09
2018-09-22T02:31:31.674Z,13.00
2018-09-22T02:33:07.764Z,12.90
2018-09-22T02:34:43.343Z,12.80
2018-09-22T02:36:18.819Z,12.89
2018-09-22T02:37:54.327Z,12.86
2018-09-22T02:39:29.917Z,12.93
2018-09-22T02:41:05.726Z,13.03
2018-09-22T02:42:41.278Z,12.88
2018-09-22T02:44:16.784Z,12.94
2018-09-22T02:45:53.706Z,12.94
2018-09-22T02:47:29.197Z,12.94
2018-09-22T02:49:04.733Z,12.86
2018-09-22T02:50:40.620Z,12.50
2018-09-22T02:52:16.782Z,12.83
2018-09-22T02:53:52.253Z,12.91
2018-09-22T02:55:28.942Z,12.91
2018-09-22T02:57:05.255Z,12.86
2018-09-22T02:58:40.742Z,12.90
2018-09-22T03:00:18.162Z,13.02
2018-09-22T03:01:53.719Z,12.91
2018-09-22T03:03:29.440Z,12.83
2018-09-22T03:05:05.085Z,12.87
2018-09-22T03:06:40.742Z,12.85
2018-09-22T03:08:16.820Z,12.86
2018-09-22T03:09:52.365Z,12.90
2018-09-22T03:11:27.950Z,12.91
2018-09-22T03:13:03.439Z,12.88
2018-09-22T03:14:38.919Z,12.83
2018-09-22T03:16:14.398Z,12.80
2018-09-22T03:17:49.886Z,12.85
2018-09-22T03:19:26.065Z,12.80
2018-09-22T03:21:01.769Z,12.89
2018-09-22T03:22:38.003Z,12.83
2018-09-22T03:24:13.581Z,12.77
2018-09-22T03:25:49.087Z,12.82
2018-09-22T03:27:24.545Z,12.90
2018-09-22T03:29:00.072Z,13.06
2018-09-22T03:30:35.561Z,13.05
2018-09-22T03:32:11.093Z,13.12
2018-09-22T03:33:46.562Z,13.04
2018-09-22T03:35:22.140Z,13.16
2018-09-22T03:36:57.635Z,13.10
2018-09-22T03:38:33.126Z,13.23
2018-09-22T03:40:08.661Z,13.33
2018-09-22T03:41:45.126Z,13.36
2018-09-22T03:43:20.665Z,13.33
2018-09-22T03:44:56.126Z,13.21
2018-09-22T03:46:31.630Z,13.22
2018-09-22T03:48:07.201Z,13.30
2018-09-22T03:49:42.708Z,13.37
2018-09-22T03:51:18.184Z,13.28
2018-09-22T03:52:53.689Z,13.26
2018-09-22T03:54:29.236Z,13.29
2018-09-22T03:56:04.775Z,13.38
2018-09-22T03:57:40.226Z,13.36
2018-09-22T03:59:15.698Z,13.24
2018-09-22T04:00:51.392Z,13.20
2018-09-22T04:02:30.051Z,13.16
2018-09-22T04:04:05.542Z,13.06
2018-09-22T04:05:41.026Z,12.99
2018-09-22T04:07:16.534Z,12.85
2018-09-22T04:08:52.004Z,12.83
2018-09-22T04:10:27.471Z,12.76
2018-09-22T04:12:02.939Z,12.90
2018-09-22T04:13:38.430Z,12.86
2018-09-22T04:15:13.954Z,12.82
2018-09-22T04:16:49.460Z,12.90
2018-09-22T04:18:24.906Z,12.98
2018-09-22T04:20:01.318Z,12.99
2018-09-22T04:21:37.183Z,12.92
2018-09-22T04:23:12.990Z,12.87
2018-09-22T04:24:48.445Z,12.85
2018-09-22T04:26:23.874Z,12.88
2018-09-22T04:27:59.349Z,12.95
2018-09-22T04:29:34.936Z,12.90
2018-09-22T04:31:10.641Z,12.91
2018-09-22T04:32:46.179Z,12.92
2018-09-22T04:34:21.690Z,12.83
2018-09-22T04:35:57.257Z,12.78
2018-09-22T04:37:32.769Z,12.76
2018-09-22T04:39:09.048Z,12.77
2018-09-22T04:40:44.570Z,12.71
2018-09-22T04:42:20.067Z,12.68
2018-09-22T04:43:55.573Z,12.72
2018-09-22T04:45:31.170Z,12.69
2018-09-22T04:47:06.611Z,12.68
2018-09-22T04:48:42.054Z,12.64
2018-09-22T04:50:17.543Z,12.68
2018-09-22T04:51:53.061Z,12.76
2018-09-22T04:53:28.523Z,12.71
2018-09-22T04:55:04.045Z,12.70
2018-09-22T04:56:39.517Z,12.69
2018-09-22T04:58:15.006Z,12.69
2018-09-22T04:59:50.498Z,12.67
2018-09-22T05:01:26.424Z,12.72
2018-09-22T05:03:01.899Z,12.27
2018-09-22T05:04:37.630Z,12.64
2018-09-22T05:06:13.088Z,12.69
2018-09-22T05:07:48.533Z,12.76
2018-09-22T05:09:23.985Z,12.82
2018-09-22T05:10:59.450Z,12.80
2018-09-22T05:12:34.959Z,12.87
2018-09-22T05:14:10.516Z,12.80
2018-09-22T05:15:45.962Z,12.81
2018-09-22T05:17:21.441Z,12.80
2018-09-22T05:18:56.915Z,12.97
2018-09-22T05:20:32.399Z,12.91
2018-09-22T05:22:07.856Z,12.94
2018-09-22T05:23:43.374Z,12.98
2018-09-22T05:25:18.814Z,13.02
2018-09-22T05:26:54.306Z,13.02
2018-09-22T05:28:29.866Z,13.03
2018-09-22T05:30:05.431Z,13.02
2018-09-22T05:31:40.946Z,13.16
2018-09-22T05:33:16.434Z,13.17
2018-09-22T05:34:51.999Z,13.20
2018-09-22T05:36:27.491Z,13.10
2018-09-22T05:38:02.963Z,13.22
2018-09-22T05:39:38.434Z,13.28
2018-09-22T05:41:13.914Z,13.34
2018-09-22T05:42:49.494Z,13.38
2018-09-22T05:44:24.959Z,13.46
2018-09-22T05:46:00.441Z,13.53
2018-09-22T05:47:35.907Z,13.86
2018-09-22T05:49:11.440Z,13.44
2018-09-22T05:50:46.909Z,13.48
2018-09-22T05:52:22.573Z,13.69
2018-09-22T05:53:58.084Z,13.64
2018-09-22T05:55:33.624Z,13.87
2018-09-22T05:57:09.099Z,14.12
2018-09-22T05:58:44.593Z,14.36
2018-09-22T06:00:20.197Z,14.28
2018-09-22T06:01:55.658Z,14.42
2018-09-22T06:03:31.173Z,14.65
2018-09-22T06:05:06.768Z,14.86
2018-09-22T06:06:45.295Z,15.11
2018-09-22T06:08:20.783Z,15.29
2018-09-22T06:09:56.246Z,15.48
2018-09-22T06:11:32.709Z,15.53
2018-09-22T06:13:08.195Z,15.51
2018-09-22T06:14:43.754Z,15.58
2018-09-22T06:16:19.252Z,15.55
2018-09-22T06:17:54.754Z,15.66
2018-09-22T06:19:30.226Z,15.80
2018-09-22T06:21:05.739Z,15.72
2018-09-22T06:22:41.258Z,15.69
2018-09-22T06:24:16.751Z,15.52
2018-09-22T06:25:52.545Z,15.46
2018-09-22T06:27:28.001Z,15.51
2018-09-22T06:29:03.522Z,15.45
2018-09-22T06:30:39.727Z,15.47
2018-09-22T06:32:15.177Z,15.59
2018-09-22T06:33:50.870Z,15.71
2018-09-22T06:35:26.362Z,15.78
2018-09-22T06:37:01.902Z,15.68
2018-09-22T06:38:37.861Z,15.80
2018-09-22T06:40:13.391Z,15.85
2018-09-22T06:41:48.971Z,15.75
2018-09-22T06:43:24.613Z,15.91
2018-09-22T06:45:00.120Z,15.86
2018-09-22T06:46:35.632Z,15.61
2018-09-22T06:48:11.126Z,15.57
2018-09-22T06:49:46.647Z,15.50
2018-09-22T06:51:22.124Z,15.59
2018-09-22T06:52:57.764Z,15.58
2018-09-22T06:54:33.337Z,15.50
2018-09-22T06:56:08.839Z,15.55
2018-09-22T06:57:44.359Z,15.50
2018-09-22T06:59:20.296Z,15.67
2018-09-22T07:00:56.228Z,15.69
2018-09-22T07:02:31.718Z,15.89
2018-09-22T07:04:07.217Z,16.09
2018-09-22T07:05:42.678Z,16.17
2018-09-22T07:07:18.241Z,16.20
2018-09-22T07:08:53.836Z,16.10
2018-09-22T07:10:29.334Z,15.96
2018-09-22T07:12:04.811Z,16.03
2018-09-22T07:13:40.373Z,15.89
2018-09-22T07:15:16.775Z,16.01
2018-09-22T07:16:52.206Z,15.79
2018-09-22T07:18:27.686Z,16.17
2018-09-22T07:20:03.231Z,16.30
2018-09-22T07:21:45.156Z,16.41
2018-09-22T07:23:20.655Z,16.60
2018-09-22T07:24:56.127Z,16.73
2018-09-22T07:26:31.587Z,17.02
2018-09-22T07:28:07.069Z,16.99
2018-09-22T07:29:42.612Z,17.15
2018-09-22T07:31:18.074Z,17.15
2018-09-22T07:32:53.530Z,17.55
2018-09-22T07:34:29.239Z,17.19
2018-09-22T07:36:04.790Z,17.11
2018-09-22T07:37:40.325Z,17.16
2018-09-22T07:39:15.851Z,17.18
2018-09-22T07:40:51.296Z,17.16
2018-09-22T07:42:26.829Z,17.29
2018-09-22T07:44:02.320Z,17.26
2018-09-22T07:45:37.778Z,17.34
2018-09-22T07:47:13.255Z,17.30
2018-09-22T07:48:48.791Z,17.32
2018-09-22T07:50:24.257Z,17.43
2018-09-22T07:51:59.773Z,17.37
2018-09-22T07:53:35.260Z,17.34
2018-09-22T07:55:10.730Z,17.26
2018-09-22T07:56:46.238Z,17.31
2018-09-22T07:58:21.732Z,17.09
2018-09-22T07:59:57.264Z,17.36
2018-09-22T08:01:32.752Z,17.43
2018-09-22T08:03:08.234Z,17.34
2018-09-22T08:04:43.761Z,17.39
2018-09-22T08:06:19.255Z,17.47
2018-09-22T08:07:54.762Z,17.74
2018-09-22T08:09:30.375Z,17.61
2018-09-22T08:11:05.815Z,17.62
2018-09-22T08:12:41.274Z,17.61
2018-09-22T08:14:16.785Z,17.75
2018-09-22T08:15:52.324Z,17.74
2018-09-22T08:17:27.877Z,17.77
2018-09-22T08:19:03.362Z,17.83
2018-09-22T08:20:38.939Z,17.79
2018-09-22T08:22:14.432Z,17.60
2018-09-22T08:23:49.981Z,17.57
2018-09-22T08:25:25.448Z,18.00
2018-09-22T08:27:01.065Z,17.95
2018-09-22T08:28:36.534Z,18.13
2018-09-22T08:30:12.039Z,17.98
2018-09-22T08:31:48.037Z,18.02
2018-09-22T08:33:23.591Z,18.40
2018-09-22T08:34:59.166Z,18.56
2018-09-22T08:36:35.056Z,18.78
2018-09-22T08:38:10.266Z,18.61
2018-09-22T08:39:45.797Z,18.74
2018-09-22T08:41:21.298Z,18.39
2018-09-22T08:42:56.738Z,18.12
2018-09-22T08:44:32.233Z,17.95
2018-09-22T08:46:07.740Z,17.79
2018-09-22T08:47:43.204Z,17.80
2018-09-22T08:49:18.786Z,17.80
2018-09-22T08:50:54.327Z,17.69
2018-09-22T08:52:29.815Z,18.02
2018-09-22T08:54:05.376Z,18.27
2018-09-22T08:55:41.935Z,18.55
2018-09-22T08:57:17.406Z,18.65
2018-09-22T08:58:52.912Z,18.64
2018-09-22T09:00:28.482Z,18.78
2018-09-22T09:02:03.902Z,18.62
2018-09-22T09:03:39.492Z,18.72
2018-09-22T09:05:15.025Z,18.59
2018-09-22T09:06:50.558Z,18.74
2018-09-22T09:08:26.866Z,19.06
2018-09-22T09:10:02.402Z,19.28
2018-09-22T09:11:37.910Z,19.30
2018-09-22T09:13:13.452Z,19.29
2018-09-22T09:14:48.941Z,19.34
2018-09-22T09:16:24.507Z,19.17
2018-09-22T09:18:00.044Z,18.84
2018-09-22T09:19:35.586Z,19.04
2018-09-22T09:21:11.080Z,19.11
2018-09-22T09:22:47.635Z,19.11
2018-09-22T09:24:29.602Z,19.48
2018-09-22T09:26:05.092Z,19.78
2018-09-22T09:27:40.576Z,19.87
2018-09-22T09:29:16.021Z,20.02
2018-09-22T09:30:51.674Z,20.12
2018-09-22T09:32:27.239Z,20.37
2018-09-22T09:34:02.770Z,20.22
2018-09-22T09:35:38.302Z,20.07
2018-09-22T09:37:13.763Z,20.10
2018-09-22T09:38:52.094Z,20.14
2018-09-22T09:40:27.610Z,19.67
2018-09-22T09:42:03.128Z,19.60
2018-09-22T09:43:39.171Z,20.21
2018-09-22T09:45:14.801Z,20.32
2018-09-22T09:46:50.478Z,20.64
2018-09-22T09:48:25.983Z,20.87
2018-09-22T09:50:01.471Z,21.00
2018-09-22T09:51:36.990Z,21.02
2018-09-22T09:53:12.940Z,21.24
2018-09-22T09:54:48.423Z,21.24
2018-09-22T09:56:24.342Z,21.00
2018-09-22T09:57:59.859Z,20.92
2018-09-22T09:59:35.334Z,20.49
2018-09-22T10:01:10.825Z,20.73
2018-09-22T10:02:46.324Z,20.74
2018-09-22T10:04:21.843Z,20.77
2018-09-22T10:05:57.304Z,20.77
2018-09-22T10:07:32.810Z,20.99
2018-09-22T10:09:09.039Z,21.11
2018-09-22T10:10:45.112Z,21.30
2018-09-22T10:12:20.577Z,20.96
2018-09-22T10:13:56.061Z,21.32
2018-09-22T10:15:31.472Z,21.35
2018-09-22T10:17:06.982Z,21.27
2018-09-22T10:18:43.010Z,21.04
2018-09-22T10:20:19.025Z,21.26
2018-09-22T10:21:55.462Z,21.28
2018-09-22T10:23:30.921Z,21.05
2018-09-22T10:25:07.301Z,21.21
2018-09-22T10:26:43.766Z,21.50
2018-09-22T10:28:19.238Z,21.19
2018-09-22T10:29:54.691Z,21.47
2018-09-22T10:31:30.175Z,20.96
2018-09-22T10:33:05.672Z,20.85
2018-09-22T10:34:41.113Z,21.17
2018-09-22T10:36:16.586Z,21.30
2018-09-22T10:37:53.485Z,20.83
2018-09-22T10:39:28.983Z,21.05
2018-09-22T10:41:04.468Z,21.44
2018-09-22T10:42:39.911Z,21.07
2018-09-22T10:44:15.422Z,21.15
2018-09-22T10:45:50.905Z,20.95
2018-09-22T10:47:26.403Z,20.93
2018-09-22T10:49:01.921Z,21.17
2018-09-22T10:50:37.456Z,21.34
2018-09-22T10:52:12.905Z,21.12
2018-09-22T10:53:48.352Z,20.81
2018-09-22T10:55:23.839Z,20.73
2018-09-22T10:56:59.531Z,20.92
2018-09-22T10:58:35.159Z,21.32
2018-09-22T11:00:10.610Z,21.61
2018-09-22T11:01:46.128Z,21.72
2018-09-22T11:03:21.747Z,21.45
2018-09-22T11:04:57.219Z,21.53
2018-09-22T11:06:32.658Z,21.77
2018-09-22T11:08:08.177Z,21.65
2018-09-22T11:09:43.719Z,21.82
2018-09-22T11:11:19.288Z,21.75
2018-09-22T11:12:54.826Z,21.80
2018-09-22T11:14:30.348Z,21.95
2018-09-22T11:16:05.887Z,22.06
2018-09-22T11:17:41.372Z,21.94
2018-09-22T11:19:16.880Z,22.23
2018-09-22T11:20:52.396Z,22.38
2018-09-22T11:22:27.866Z,22.09
2018-09-22T11:24:03.398Z,21.92
2018-09-22T11:25:38.983Z,21.35
2018-09-22T11:27:14.487Z,20.94
2018-09-22T11:28:49.949Z,21.39
2018-09-22T11:30:25.380Z,21.28
2018-09-22T11:32:00.879Z,21.27
2018-09-22T11:33:36.366Z,21.55
2018-09-22T11:35:14.696Z,21.59
2018-09-22T11:36:50.227Z,21.71
2018-09-22T11:38:25.745Z,21.87
2018-09-22T11:40:01.246Z,21.99
2018-09-22T11:41:36.809Z,21.55
2018-09-22T11:43:12.516Z,21.48
2018-09-22T11:44:48.000Z,21.26
2018-09-22T11:46:23.499Z,21.56
2018-09-22T11:47:58.943Z,21.65
2018-09-22T11:49:34.456Z,21.60
2018-09-22T11:51:09.916Z,21.49
2018-09-22T11:52:45.366Z,21.56
2018-09-22T11:54:20.918Z,21.67
2018-09-22T11:55:56.395Z,21.72
2018-09-22T11:57:31.846Z,21.61
2018-09-22T11:59:07.335Z,21.36
2018-09-22T12:00:42.771Z,21.42
2018-09-22T12:02:18.218Z,21.58
2018-09-22T12:03:53.674Z,21.74
2018-09-22T12:05:29.150Z,21.51
2018-09-22T12:07:04.602Z,21.76
2018-09-22T12:08:40.058Z,22.07
2018-09-22T12:10:15.490Z,22.09
2018-09-22T12:11:50.973Z,22.05
2018-09-22T12:13:26.412Z,22.13
2018-09-22T12:15:01.839Z,22.03
2018-09-22T12:16:37.414Z,22.11
2018-09-22T12:18:12.924Z,22.10
2018-09-22T12:19:48.510Z,22.06
2018-09-22T12:21:24.092Z,21.71
2018-09-22T12:22:59.543Z,21.51
2018-09-22T12:24:35.134Z,21.65
2018-09-22T12:26:10.664Z,21.65
2018-09-22T12:27:47.203Z,22.02
2018-09-22T12:29:22.689Z,22.17
2018-09-22T12:30:58.202Z,22.08
2018-09-22T12:32:33.694Z,22.29
2018-09-22T12:34:09.179Z,22.25
2018-09-22T12:35:44.681Z,22.39
2018-09-22T12:37:20.141Z,22.02
2018-09-22T12:38:55.775Z,22.21
2018-09-22T12:40:31.254Z,22.20
2018-09-22T12:42:06.761Z,22.21
2018-09-22T12:43:42.210Z,21.94
2018-09-22T12:45:17.692Z,22.41
2018-09-22T12:46:53.151Z,22.81
2018-09-22T12:48:28.606Z,23.04
2018-09-22T12:50:04.234Z,23.06
2018-09-22T12:51:39.917Z,22.70
2018-09-22T12:53:16.006Z,22.52
2018-09-22T12:54:51.479Z,22.33
2018-09-22T12:56:26.978Z,22.41
2018-09-22T12:58:02.575Z,22.47
2018-09-22T12:59:38.139Z,22.48
2018-09-22T13:01:13.659Z,22.38
2018-09-22T13:02:49.136Z,22.66
2018-09-22T13:04:24.623Z,22.51
2018-09-22T13:06:00.133Z,22.66
2018-09-22T13:07:35.793Z,22.38
2018-09-22T13:09:12.056Z,22.69
2018-09-22T13:10:47.551Z,22.50
2018-09-22T13:12:23.072Z,22.89
2018-09-22T13:13:58.547Z,22.97
2018-09-22T13:15:34.050Z,22.51
2018-09-22T13:17:09.554Z,22.71
2018-09-22T13:18:45.076Z,22.31
2018-09-22T13:20:20.660Z,22.37
2018-09-22T13:21:56.123Z,22.57
2018-09-22T13:23:31.571Z,22.36
2018-09-22T13:25:07.138Z,22.62
2018-09-22T13:26:42.637Z,22.20
2018-09-22T13:28:18.093Z,22.18
2018-09-22T13:29:53.647Z,22.31
2018-09-22T13:31:29.187Z,22.32
2018-09-22T13:33:04.743Z,22.24
2018-09-22T13:34:40.276Z,22.41
2018-09-22T13:36:15.818Z,22.41
2018-09-22T13:37:51.566Z,22.31
2018-09-22T13:39:27.057Z,22.47
2018-09-22T13:41:02.542Z,22.55
2018-09-22T13:42:38.084Z,22.59
2018-09-22T13:44:13.718Z,22.13
2018-09-22T13:45:49.256Z,21.46
2018-09-22T13:47:24.785Z,21.66
2018-09-22T13:49:00.294Z,21.82
2018-09-22T13:50:35.793Z,22.20
2018-09-22T13:52:12.323Z,22.32
2018-09-22T13:53:49.546Z,22.38
2018-09-22T13:55:25.275Z,22.51
2018-09-22T13:57:00.832Z,22.29
2018-09-22T13:58:36.330Z,22.23
2018-09-22T14:00:11.826Z,22.37
2018-09-22T14:01:47.440Z,22.41
2018-09-22T14:03:23.142Z,22.17
2018-09-22T14:04:58.598Z,22.14
2018-09-22T14:06:34.237Z,22.22
2018-09-22T14:08:09.663Z,21.99
2018-09-22T14:09:45.147Z,21.80
2018-09-22T14:11:20.639Z,22.07
2018-09-22T14:12:56.187Z,22.08
2018-09-22T14:14:31.690Z,22.22
2018-09-22T14:16:07.198Z,22.12
2018-09-22T14:17:42.725Z,22.01
2018-09-22T14:19:18.215Z,22.04
2018-09-22T14:20:53.810Z,22.19
2018-09-22T14:22:30.236Z,22.29
2018-09-22T14:24:05.747Z,22.25
2018-09-22T14:25:41.289Z,21.99
2018-09-22T14:27:16.801Z,22.02
2018-09-22T14:28:52.295Z,21.66
2018-09-22T14:30:27.750Z,21.48
2018-09-22T14:32:03.269Z,21.83
2018-09-22T14:33:38.711Z,21.30
2018-09-22T14:35:14.210Z,21.41
2018-09-22T14:36:49.755Z,21.47
2018-09-22T14:38:25.206Z,21.61
2018-09-22T14:40:00.663Z,21.80
2018-09-22T14:41:36.218Z,21.64
2018-09-22T14:43:11.694Z,21.43
2018-09-22T14:44:47.126Z,21.21
2018-09-22T14:46:22.568Z,21.22
2018-09-22T14:47:58.067Z,21.12
2018-09-22T14:49:33.568Z,20.83
2018-09-22T14:51:09.028Z,21.05
2018-09-22T14:52:44.570Z,21.07
2018-09-22T14:54:20.092Z,21.07
2018-09-22T14:55:55.600Z,21.05
2018-09-22T14:57:31.232Z,21.18
2018-09-22T14:59:07.869Z,21.34
2018-09-22T15:00:43.443Z,21.22
2018-09-22T15:02:19.305Z,20.72
2018-09-22T15:03:55.030Z,20.54
2018-09-22T15:05:30.726Z,20.73
2018-09-22T15:07:06.282Z,20.97
2018-09-22T15:08:42.776Z,21.04
2018-09-22T15:10:19.366Z,21.01
2018-09-22T15:11:55.061Z,21.06
2018-09-22T15:13:30.674Z,21.05
2018-09-22T15:15:06.190Z,20.77
2018-09-22T15:16:41.662Z,20.74
2018-09-22T15:18:18.202Z,20.66
2018-09-22T15:19:53.861Z,20.51
2018-09-22T15:21:29.885Z,20.65
2018-09-22T15:23:05.453Z,20.95
2018-09-22T15:24:41.189Z,21.17
2018-09-22T15:26:16.802Z,21.33
2018-09-22T15:27:52.381Z,21.32
2018-09-22T15:29:27.870Z,21.12
2018-09-22T15:31:03.790Z,21.08
2018-09-22T15:32:39.450Z,21.12
2018-09-22T15:34:14.947Z,20.90
2018-09-22T15:35:50.635Z,20.92
2018-09-22T15:37:26.414Z,21.03
2018-09-22T15:39:02.037Z,21.05
2018-09-22T15:40:37.613Z,21.03
2018-09-22T15:42:14.164Z,21.00
2018-09-22T15:43:51.486Z,20.92
2018-09-22T15:45:27.043Z,20.72
2018-09-22T15:47:03.576Z,20.63
2018-09-22T15:48:39.363Z,20.58
2018-09-22T15:50:15.459Z,20.72
2018-09-22T15:51:50.996Z,20.69
2018-09-22T15:53:26.565Z,20.79
2018-09-22T15:55:03.216Z,20.83
2018-09-22T15:56:39.217Z,20.78
2018-09-22T15:58:14.752Z,20.83
2018-09-22T15:59:51.332Z,20.85
2018-09-22T16:01:26.898Z,20.86
2018-09-22T16:03:02.409Z,20.99
2018-09-22T16:04:38.079Z,20.87
2018-09-22T16:06:13.671Z,20.86
2018-09-22T16:07:49.204Z,20.92
2018-09-22T16:09:31.313Z,20.83
2018-09-22T16:11:06.776Z,20.80
2018-09-22T16:12:42.271Z,20.56
2018-09-22T16:14:17.784Z,20.49
2018-09-22T16:15:53.407Z,20.27
2018-09-22T16:17:29.015Z,20.15
2018-09-22T16:19:04.683Z,20.27
2018-09-22T16:20:40.258Z,20.30
2018-09-22T16:22:15.820Z,20.24
2018-09-22T16:23:51.398Z,20.16
2018-09-22T16:25:27.003Z,19.95
2018-09-22T16:27:02.633Z,20.02
2018-09-22T16:28:38.087Z,19.95
2018-09-22T16:30:13.647Z,19.83
2018-09-22T16:31:49.170Z,19.67
2018-09-22T16:33:24.707Z,19.70
2018-09-22T16:35:00.275Z,19.74
2018-09-22T16:36:35.874Z,19.79
2018-09-22T16:38:11.470Z,19.83
2018-09-22T16:39:47.031Z,19.74
2018-09-22T16:41:22.531Z,19.78
2018-09-22T16:42:58.062Z,19.66
2018-09-22T16:44:33.587Z,19.65
2018-09-22T16:46:09.241Z,19.63
2018-09-22T16:47:44.882Z,19.68
2018-09-22T16:49:20.398Z,19.63
2018-09-22T16:50:55.908Z,19.54
2018-09-22T16:52:31.836Z,19.62
2018-09-22T16:54:07.953Z,19.22
2018-09-22T16:55:43.567Z,19.13
2018-09-22T16:57:19.503Z,19.35
2018-09-22T16:58:55.144Z,19.40
2018-09-22T17:00:30.721Z,19.47
2018-09-22T17:02:06.270Z,19.54
2018-09-22T17:03:41.844Z,19.53
2018-09-22T17:05:17.344Z,19.49
2018-09-22T17:06:52.899Z,19.53
2018-09-22T17:08:28.452Z,19.35
2018-09-22T17:10:04.376Z,19.35
2018-09-22T17:11:40.454Z,19.26
2018-09-22T17:13:16.074Z,19.21
2018-09-22T17:14:51.927Z,19.29
2018-09-22T17:16:27.656Z,19.36
2018-09-22T17:18:03.404Z,19.38
2018-09-22T17:19:39.182Z,19.37
2018-09-22T17:21:15.144Z,19.30
2018-09-22T17:22:50.907Z,19.35
2018-09-22T17:24:26.480Z,19.30
2018-09-22T17:26:02.031Z,19.32
2018-09-22T17:27:37.764Z,19.37
2018-09-22T17:29:13.310Z,19.22
2018-09-22T17:30:49.160Z,19.13
2018-09-22T17:32:24.891Z,19.24
2018-09-22T17:34:00.636Z,19.35
2018-09-22T17:35:36.826Z,19.34
2018-09-22T17:37:12.429Z,19.39
2018-09-22T17:38:48.094Z,19.39
2018-09-22T17:40:24.040Z,19.39
2018-09-22T17:41:59.778Z,19.11
2018-09-22T17:43:35.319Z,18.95
2018-09-22T17:45:11.071Z,18.85
2018-09-22T17:46:46.693Z,19.02
2018-09-22T17:48:22.797Z,18.87
2018-09-22T17:49:59.053Z,18.93
2018-09-22T17:51:35.119Z,18.98
2018-09-22T17:53:13.589Z,18.89
2018-09-22T17:54:49.867Z,18.98
2018-09-22T17:56:25.732Z,19.00
2018-09-22T17:58:01.463Z,19.01
2018-09-22T17:59:37.332Z,19.11
2018-09-22T18:01:13.011Z,19.09
2018-09-22T18:02:48.673Z,18.89
2018-09-22T18:04:24.661Z,18.88
2018-09-22T18:06:00.324Z,18.93
2018-09-22T18:07:36.088Z,18.71
2018-09-22T18:09:11.964Z,18.80
2018-09-22T18:10:47.811Z,18.95
2018-09-22T18:12:23.599Z,18.85
2018-09-22T18:13:59.872Z,18.75
2018-09-22T18:15:35.865Z,18.83
2018-09-22T18:17:11.895Z,18.90
2018-09-22T18:18:47.620Z,18.96
2018-09-22T18:20:23.557Z,18.79
2018-09-22T18:21:59.435Z,18.71
2018-09-22T18:23:35.253Z,18.78
2018-09-22T18:25:10.908Z,18.78
2018-09-22T18:26:46.818Z,18.67
2018-09-22T18:28:22.839Z,18.65
2018-09-22T18:29:58.476Z,18.58
2018-09-22T18:31:34.083Z,18.51
2018-09-22T18:33:11.659Z,18.55
2018-09-22T18:34:47.430Z,18.44
2018-09-22T18:36:23.097Z,18.45
2018-09-22T18:37:58.836Z,18.53
2018-09-22T18:39:35.181Z,18.46
2018-09-22T18:41:10.854Z,18.49
2018-09-22T18:42:47.420Z,18.54
2018-09-22T18:44:23.299Z,18.55
2018-09-22T18:45:59.176Z,18.36
2018-09-22T18:47:35.389Z,18.41
2018-09-22T18:49:11.076Z,18.46
2018-09-22T18:50:46.921Z,18.26
2018-09-22T18:52:22.649Z,18.36
2018-09-22T18:53:58.296Z,18.38
2018-09-22T18:55:34.031Z,18.46
2018-09-22T18:57:09.754Z,18.32
2018-09-22T18:58:45.468Z,18.43
2018-09-22T19:00:20.978Z,18.55
2018-09-22T19:01:56.602Z,18.36
2018-09-22T19:03:32.324Z,18.37
2018-09-22T19:05:08.061Z,18.26
2018-09-22T19:06:44.108Z,18.32
2018-09-22T19:08:20.001Z,18.43
2018-09-22T19:09:55.808Z,18.37
2018-09-22T19:11:31.751Z,18.30
2018-09-22T19:13:09.089Z,18.37
2018-09-22T19:14:50.231Z,18.36
2018-09-22T19:16:29.411Z,18.45
2018-09-22T19:18:09.201Z,18.48
2018-09-22T19:19:52.724Z,18.44
2018-09-22T19:21:36.012Z,18.04
2018-09-22T19:23:19.609Z,17.97
2018-09-22T19:25:08.467Z,17.98
2018-09-22T19:26:49.823Z,17.83
2018-09-22T19:28:32.053Z,17.50
2018-09-22T19:30:18.461Z,17.05
2018-09-22T19:32:04.161Z,17.22
2018-09-22T19:33:47.880Z,17.31
2018-09-22T19:35:32.646Z,17.24
2018-09-22T19:37:26.296Z,17.11
2018-09-22T19:39:05.376Z,17.06
2018-09-22T19:40:51.877Z,16.67
2018-09-22T19:43:32.248Z,16.57
2018-09-22T19:45:12.804Z,16.78
2018-09-22T19:47:55.306Z,16.81
2018-09-22T19:49:35.584Z,16.65
2018-09-22T19:51:28.045Z,16.21
2018-09-22T19:53:03.828Z,16.35
2018-09-22T19:54:39.438Z,16.47
2018-09-22T19:56:15.129Z,16.36
2018-09-22T19:57:50.714Z,16.38
2018-09-22T19:59:26.500Z,16.52
2018-09-22T20:01:02.347Z,16.57
2018-09-22T20:02:38.936Z,16.66
2018-09-22T20:04:14.707Z,16.78
2018-09-22T20:05:50.322Z,16.72
2018-09-22T20:07:26.914Z,16.74
2018-09-22T20:09:06.598Z,16.84
2018-09-22T20:10:42.559Z,17.04
2018-09-22T20:12:18.238Z,16.78
2018-09-22T20:13:54.267Z,16.52
2018-09-22T20:15:29.916Z,16.52
2018-09-22T20:17:05.509Z,16.61
2018-09-22T20:18:41.175Z,16.64
2018-09-22T20:20:17.237Z,16.57
2018-09-22T20:21:52.971Z,16.68
2018-09-22T20:23:28.694Z,16.49
2018-09-22T20:25:04.580Z,16.79
2018-09-22T20:26:40.303Z,16.72
2018-09-22T20:28:15.928Z,16.82
2018-09-22T20:29:51.454Z,16.91
2018-09-22T20:31:26.934Z,16.83
2018-09-22T20:33:03.690Z,16.50
2018-09-22T20:34:39.408Z,16.62
2018-09-22T20:36:15.201Z,16.88
2018-09-22T20:37:50.827Z,16.81